Time;durP1;ratioP1;P1;durP2;ratioP2;P2;SDS_P1;SDS_P2;PMS_P1;PMS_P2;Temp;Humidity;BMP_temperature;BMP_pressure;BME280_temperature;BME280_humidity;BME280_pressure;Samples;Min_cycle;Max_cycle;Signal;HPM_P1;HPM_P2
2021/07/25 00:00:14;;;;;;;3.92;2.38;;;;;;;16.10;66.74;96617.56;5055039;28;20056;-71
2021/07/25 00:02:40;;;;;;;6.65;3.42;;;;;;;16.02;67.47;96618.00;5054824;28;20060;-71
2021/07/25 00:05:08;;;;;;;7.15;2.50;;;;;;;15.96;67.29;96616.59;5054819;28;20100;-70
2021/07/25 00:07:33;;;;;;;4.40;2.60;;;;;;;15.90;67.57;96617.75;5054814;28;20028;-69
2021/07/25 00:10:01;;;;;;;7.22;2.78;;;;;;;15.87;68.42;96606.53;5054677;28;20383;-72
2021/07/25 00:12:26;;;;;;;3.78;2.78;;;;;;;15.86;68.12;96603.03;5054601;28;20021;-71
2021/07/25 00:14:52;;;;;;;8.75;3.25;;;;;;;15.70;68.69;96600.47;5054848;28;20017;-70
2021/07/25 00:17:18;;;;;;;4.72;2.60;;;;;;;15.66;68.83;96601.59;5053399;28;20017;-71
2021/07/25 00:19:44;;;;;;;5.18;3.05;;;;;;;15.62;69.02;96598.25;5054618;28;20036;-71
2021/07/25 00:22:09;;;;;;;4.50;2.50;;;;;;;15.59;68.54;96598.44;5054457;28;20092;-71
2021/07/25 00:24:37;;;;;;;5.20;3.13;;;;;;;15.54;68.63;96600.50;5054545;28;20025;-71
2021/07/25 00:27:05;;;;;;;2.60;2.33;;;;;;;15.61;68.87;96612.38;5054444;28;20036;-71
2021/07/25 00:29:31;;;;;;;4.53;2.85;;;;;;;15.68;68.51;96601.50;5054310;28;20024;-70
2021/07/25 00:32:00;;;;;;;4.95;2.75;;;;;;;15.66;68.17;96606.84;5054265;28;20029;-71
2021/07/25 00:34:30;;;;;;;4.50;2.58;;;;;;;15.63;68.35;96601.75;5054319;28;20391;-72
2021/07/25 00:36:56;;;;;;;3.35;2.78;;;;;;;15.62;68.34;96614.06;5054306;28;20059;-71
2021/07/25 00:39:22;;;;;;;3.50;2.70;;;;;;;15.60;68.30;96599.28;5054322;28;20498;-70
2021/07/25 00:41:48;;;;;;;6.55;2.80;;;;;;;15.59;68.20;96611.63;5054158;28;20021;-71
2021/07/25 00:44:13;;;;;;;4.43;2.55;;;;;;;15.56;68.30;96605.69;5054104;28;20067;-70
2021/07/25 00:46:40;;;;;;;2.70;2.33;;;;;;;15.53;68.09;96604.06;5054092;28;20018;-72
2021/07/25 00:49:06;;;;;;;4.32;2.33;;;;;;;15.49;68.17;96602.53;5052636;28;20035;-71
2021/07/25 00:51:33;;;;;;;5.25;2.75;;;;;;;15.50;68.33;96610.34;5054122;28;20029;-69
2021/07/25 00:53:59;;;;;;;4.38;3.03;;;;;;;15.53;68.33;96604.06;5053746;28;20049;-72
2021/07/25 00:56:24;;;;;;;3.20;2.67;;;;;;;15.60;68.26;96602.78;5053982;28;20379;-70
2021/07/25 00:58:50;;;;;;;4.50;2.25;;;;;;;15.58;67.27;96609.94;5053893;28;20107;-70
2021/07/25 01:01:22;;;;;;;3.70;2.03;;;;;;;15.55;67.46;96610.09;5053830;28;20025;-69
2021/07/25 01:04:34;;;;;;;2.90;2.60;;;;;;;15.36;67.79;96613.78;5053876;28;20063;-71
2021/07/25 01:07:27;;;;;;;4.28;2.85;;;;;;;15.22;68.36;96611.91;4982528;28;20045;-69
2021/07/25 01:10:07;;;;;;;4.50;2.20;;;;;;;15.16;68.25;96605.22;5053631;28;20029;-71
2021/07/25 01:12:41;;;;;;;5.80;3.17;;;;;;;15.13;69.00;96613.28;5053539;28;20033;-72
2021/07/25 01:15:08;;;;;;;6.00;2.63;;;;;;;15.13;69.55;96610.66;5053670;28;20108;-70
2021/07/25 01:17:35;;;;;;;3.53;2.70;;;;;;;15.17;69.71;96613.94;5053461;28;20471;-69
2021/07/25 01:20:07;;;;;;;3.80;2.58;;;;;;;15.20;69.46;96602.41;5053324;28;20025;-71
2021/07/25 01:22:45;;;;;;;4.60;2.55;;;;;;;15.24;68.41;96601.28;5053539;28;20029;-71
2021/07/25 01:25:13;;;;;;;4.97;2.75;;;;;;;15.21;68.16;96604.97;5053376;28;20021;-72
2021/07/25 01:27:48;;;;;;;3.90;2.60;;;;;;;15.11;69.63;96599.34;5053290;28;20479;-70
2021/07/25 01:30:20;;;;;;;7.55;2.67;;;;;;;15.11;69.30;96604.59;5053232;28;20044;-72
2021/07/25 01:32:49;;;;;;;4.60;2.88;;;;;;;15.10;69.36;96600.28;5053262;28;20463;-71
2021/07/25 01:35:15;;;;;;;5.10;2.72;;;;;;;15.16;69.25;96601.72;5053188;28;20063;-71
2021/07/25 01:37:41;;;;;;;9.93;2.90;;;;;;;15.12;69.22;96598.41;5053212;28;20446;-71
2021/07/25 01:40:20;;;;;;;5.38;2.40;;;;;;;15.10;68.79;96597.66;5053120;28;20017;-71
2021/07/25 01:42:47;;;;;;;5.53;3.17;;;;;;;15.03;68.90;96599.75;5052628;28;20395;-72
2021/07/25 01:45:13;;;;;;;4.50;2.63;;;;;;;15.00;69.30;96596.47;5053085;28;20028;-71
2021/07/25 01:47:40;;;;;;;4.90;2.42;;;;;;;15.05;69.21;96594.41;5052995;28;20021;-72
2021/07/25 01:50:06;;;;;;;3.13;2.60;;;;;;;15.04;69.35;96592.72;5053022;28;20073;-72
2021/07/25 01:52:32;;;;;;;5.97;3.00;;;;;;;15.07;69.33;96595.19;5052753;28;20032;-71
2021/07/25 01:54:58;;;;;;;4.25;2.55;;;;;;;15.11;69.38;96595.88;5053077;28;20029;-73
2021/07/25 01:57:24;;;;;;;3.88;2.70;;;;;;;15.16;69.48;96602.56;5052946;28;20032;-71
2021/07/25 01:59:50;;;;;;;3.80;2.50;;;;;;;15.14;68.99;96604.44;5052989;28;20024;-72
2021/07/25 02:02:15;;;;;;;3.58;2.50;;;;;;;15.16;68.51;96606.97;5052873;28;20094;-70
2021/07/25 02:04:41;;;;;;;4.32;3.15;;;;;;;15.10;68.89;96607.31;5052892;28;20021;-71
2021/07/25 02:07:07;;;;;;;4.20;2.58;;;;;;;15.09;68.82;96608.25;5052876;28;20032;-71
2021/07/25 02:09:34;;;;;;;4.55;2.70;;;;;;;15.06;69.03;96609.28;5052746;28;20382;-70
2021/07/25 02:11:59;;;;;;;3.08;2.78;;;;;;;15.03;68.95;96605.03;5052930;28;20028;-73
2021/07/25 02:14:25;;;;;;;2.92;2.58;;;;;;;15.02;69.40;96610.41;5052998;28;20017;-72
2021/07/25 02:16:50;;;;;;;5.25;2.70;;;;;;;15.01;69.64;96611.31;5052726;28;20052;-71
2021/07/25 02:19:16;;;;;;;4.30;2.97;;;;;;;14.92;69.61;96610.03;5052760;28;20025;-70
2021/07/25 02:21:42;;;;;;;6.82;3.28;;;;;;;14.96;70.21;96613.38;5052775;28;20070;-72
2021/07/25 02:24:07;;;;;;;3.65;2.45;;;;;;;14.96;69.61;96616.84;5052841;28;20025;-72
2021/07/25 02:26:33;;;;;;;4.80;3.03;;;;;;;14.93;70.00;96606.47;5052904;28;20026;-72
2021/07/25 02:28:58;;;;;;;3.55;2.75;;;;;;;14.94;69.60;96613.44;5052646;28;20033;-69
2021/07/25 02:31:24;;;;;;;4.07;3.42;;;;;;;14.99;69.60;96613.19;5052675;28;20083;-70
2021/07/25 02:33:49;;;;;;;6.10;3.30;;;;;;;14.94;69.01;96620.50;5052516;28;20090;-71
2021/07/25 02:36:15;;;;;;;5.10;3.03;;;;;;;14.95;69.33;96611.66;5052617;28;20055;-70
2021/07/25 02:38:40;;;;;;;3.60;3.03;;;;;;;14.91;69.99;96617.06;5052690;28;20025;-70
2021/07/25 02:41:06;;;;;;;6.88;3.75;;;;;;;14.91;70.57;96624.16;5052647;28;20503;-72
2021/07/25 02:43:32;;;;;;;9.82;4.40;;;;;;;14.96;70.35;96619.47;5052690;28;20374;-72
2021/07/25 02:45:57;;;;;;;3.83;3.35;;;;;;;14.96;70.04;96619.47;5052580;28;20048;-71
2021/07/25 02:48:23;;;;;;;3.70;3.35;;;;;;;14.97;69.88;96618.56;5052388;28;20099;-70
2021/07/25 02:50:49;;;;;;;5.65;3.28;;;;;;;14.92;69.87;96623.19;5052328;28;20014;-72
2021/07/25 02:53:14;;;;;;;6.15;3.78;;;;;;;14.92;70.13;96617.94;5052431;28;20128;-69
2021/07/25 02:55:40;;;;;;;7.45;4.03;;;;;;;14.89;69.96;96618.97;5056149;28;20032;-71
2021/07/25 02:58:05;;;;;;;6.20;4.55;;;;;;;14.89;69.80;96624.22;5056165;28;20111;-73
2021/07/25 03:00:31;;;;;;;3.83;3.42;;;;;;;14.89;69.58;96626.88;5056099;28;20063;-70
2021/07/25 03:02:57;;;;;;;4.85;3.15;;;;;;;14.86;69.35;96624.41;5056077;28;20378;-71
2021/07/25 03:05:23;;;;;;;8.80;3.70;;;;;;;14.89;69.23;96621.59;5055996;28;20025;-72
2021/07/25 03:07:48;;;;;;;5.68;3.90;;;;;;;14.93;69.34;96632.78;5056032;28;20021;-72
2021/07/25 03:10:14;;;;;;;6.03;3.92;;;;;;;14.98;69.04;96625.50;5054530;28;20379;-72
2021/07/25 03:12:39;;;;;;;5.63;3.92;;;;;;;15.00;69.26;96622.78;5055837;28;20056;-70
2021/07/25 03:15:05;;;;;;;5.75;3.85;;;;;;;15.02;69.42;96628.84;5055887;28;20079;-72
2021/07/25 03:17:31;;;;;;;7.88;4.65;;;;;;;15.03;69.43;96626.09;5055831;28;20021;-72
2021/07/25 03:19:56;;;;;;;6.22;3.80;;;;;;;15.02;68.82;96623.56;5055753;28;20033;-72
2021/07/25 03:22:23;;;;;;;8.43;4.30;;;;;;;14.97;69.05;96620.31;5055726;28;20494;-70
2021/07/25 03:24:48;;;;;;;11.70;4.03;;;;;;;14.96;69.37;96622.09;5055687;28;20487;-71
2021/07/25 03:27:14;;;;;;;5.22;3.75;;;;;;;14.92;69.66;96610.03;5055614;28;20155;-71
2021/07/25 03:29:39;;;;;;;6.95;4.18;;;;;;;14.97;69.41;96610.66;5055610;28;20100;-71
2021/07/25 03:32:05;;;;;;;4.15;3.75;;;;;;;15.02;69.37;96611.22;5055444;28;20043;-73
2021/07/25 03:34:34;;;;;;;5.53;4.03;;;;;;;15.03;69.59;96610.28;5055453;28;20037;-72
2021/07/25 03:37:00;;;;;;;7.63;5.35;;;;;;;15.07;69.41;96607.47;5055302;28;20017;-70
2021/07/25 03:39:26;;;;;;;4.80;3.67;;;;;;;15.02;69.60;96608.59;5055335;28;20471;-73
2021/07/25 03:41:52;;;;;;;4.88;3.53;;;;;;;15.04;69.52;96611.16;5055410;28;20031;-70
2021/07/25 03:44:18;;;;;;;5.85;4.40;;;;;;;15.02;69.64;96611.22;5055243;28;20031;-72
2021/07/25 03:46:43;;;;;;;5.38;3.88;;;;;;;15.02;69.85;96608.59;5055020;28;20025;-71
2021/07/25 03:49:09;;;;;;;9.90;4.07;;;;;;;15.17;69.52;96613.94;5055011;28;20021;-71
2021/07/25 03:51:38;;;;;;;5.05;3.45;;;;;;;15.43;69.11;96611.66;5055144;28;20074;-71
2021/07/25 03:54:05;;;;;;;6.13;3.60;;;;;;;15.74;68.48;96614.34;5054893;28;20110;-73
2021/07/25 03:56:30;;;;;;;7.78;3.35;;;;;;;16.10;67.37;96615.75;5055180;28;20486;-73
2021/07/25 03:58:56;;;;;;;6.18;3.70;;;;;;;16.45;65.74;96614.59;5055055;28;20017;-70
2021/07/25 04:01:22;;;;;;;3.67;3.08;;;;;;;16.79;65.15;96617.81;5054949;28;20116;-71
2021/07/25 04:03:47;;;;;;;9.15;4.00;;;;;;;17.15;64.68;96622.69;5054786;28;20036;-70
2021/07/25 04:06:13;;;;;;;5.35;3.45;;;;;;;17.59;63.56;96612.84;5054598;28;20017;-73
2021/07/25 04:08:39;;;;;;;7.50;3.45;;;;;;;17.98;62.76;96622.69;5054760;28;20025;-71
2021/07/25 04:11:04;;;;;;;4.40;3.50;;;;;;;18.35;61.32;96622.00;5054801;28;20025;-71
2021/07/25 04:13:31;;;;;;;3.90;3.25;;;;;;;18.70;60.49;96621.38;5054728;28;20032;-71
2021/07/25 04:15:56;;;;;;;6.40;3.17;;;;;;;19.07;59.93;96623.22;5054624;28;20021;-70
2021/07/25 04:18:22;;;;;;;6.18;3.60;;;;;;;19.50;59.62;96627.25;5054779;28;20040;-73
2021/07/25 04:20:47;;;;;;;4.07;3.08;;;;;;;19.91;58.73;96622.53;5054531;28;20021;-71
2021/07/25 04:23:13;;;;;;;4.85;3.58;;;;;;;20.26;57.91;96633.28;5054550;28;20051;-70
2021/07/25 04:25:39;;;;;;;4.35;3.28;;;;;;;20.56;56.96;96619.44;5054612;28;20083;-71
2021/07/25 04:28:05;;;;;;;6.22;3.50;;;;;;;20.93;56.38;96621.06;5054509;28;20029;-70
2021/07/25 04:30:33;;;;;;;5.47;3.67;;;;;;;21.28;55.58;96629.00;5054509;28;20090;-73
2021/07/25 04:33:00;;;;;;;7.43;3.20;;;;;;;21.65;55.19;96631.34;5054432;28;20021;-71
2021/07/25 04:35:26;;;;;;;11.75;3.13;;;;;;;21.98;54.21;96630.50;5054276;28;20475;-73
2021/07/25 04:37:54;;;;;;;4.85;3.65;;;;;;;22.28;53.73;96631.56;5054179;28;20154;-73
2021/07/25 04:40:22;;;;;;;6.18;3.17;;;;;;;22.61;53.38;96636.84;5054214;28;20032;-70
2021/07/25 04:42:53;;;;;;;12.25;3.78;;;;;;;22.98;52.62;96639.00;5054245;28;20017;-72
2021/07/25 04:45:30;;;;;;;8.95;3.38;;;;;;;23.34;51.37;96635.88;5054125;28;20025;-69
2021/07/25 04:48:13;;;;;;;5.30;3.70;;;;;;;23.59;50.93;96647.91;5054143;28;20102;-71
2021/07/25 04:50:52;;;;;;;6.15;3.40;;;;;;;23.84;49.45;96648.34;5054176;28;20045;-70
2021/07/25 04:53:24;;;;;;;7.25;3.30;;;;;;;24.15;50.11;96649.22;5053942;28;20507;-70
2021/07/25 04:56:01;;;;;;;6.18;3.22;;;;;;;24.47;49.41;96651.59;5053860;28;20594;-70
2021/07/25 04:58:38;;;;;;;5.88;3.83;;;;;;;24.81;49.33;96662.78;5053743;28;20029;-72
2021/07/25 05:01:05;;;;;;;5.45;3.53;;;;;;;25.12;48.08;96646.50;5053819;28;20033;-69
2021/07/25 05:03:33;;;;;;;6.15;3.20;;;;;;;25.43;48.55;96662.25;5053801;28;20017;-69
2021/07/25 05:05:59;;;;;;;4.25;3.08;;;;;;;25.78;48.27;96664.31;5053677;28;20478;-70
2021/07/25 05:08:25;;;;;;;4.75;3.45;;;;;;;26.03;47.81;96660.06;5053531;28;20029;-70
2021/07/25 05:11:08;;;;;;;8.05;3.35;;;;;;;26.24;46.58;96657.06;5053509;28;20036;-70
2021/07/25 05:13:36;;;;;;;5.05;3.70;;;;;;;26.51;45.51;96656.28;5053583;28;20021;-71
2021/07/25 05:16:07;;;;;;;7.57;3.92;;;;;;;26.73;44.69;96661.13;5052717;28;20047;-69
2021/07/25 05:18:40;;;;;;;4.97;3.67;;;;;;;27.02;45.30;96669.88;5053573;28;20471;-69
2021/07/25 05:21:30;;;;;;;7.15;3.92;;;;;;;27.36;45.95;96658.28;5053423;28;20064;-71
2021/07/25 05:23:57;;;;;;;6.60;3.65;;;;;;;27.58;45.37;96663.22;5053483;28;20056;-69
2021/07/25 05:26:26;;;;;;;9.07;4.00;;;;;;;27.83;44.99;96664.16;5053342;28;20032;-70
2021/07/25 05:28:57;;;;;;;5.18;3.78;;;;;;;28.00;44.18;96662.31;5053282;28;20024;-70
2021/07/25 05:31:33;;;;;;;10.75;3.53;;;;;;;28.20;44.55;96664.69;5053330;28;20115;-71
2021/07/25 05:34:01;;;;;;;8.75;4.03;;;;;;;28.38;42.98;96663.72;5053345;28;20029;-71
2021/07/25 05:36:27;;;;;;;5.07;3.72;;;;;;;28.62;43.49;96667.41;5053213;28;20025;-70
2021/07/25 05:38:53;;;;;;;7.53;3.90;;;;;;;28.81;42.67;96658.16;5053237;28;20371;-69
2021/07/25 05:41:19;;;;;;;7.32;3.72;;;;;;;29.01;42.93;96665.84;5053152;28;20376;-70
2021/07/25 05:43:45;;;;;;;5.22;3.58;;;;;;;29.24;43.08;96660.56;5053120;28;20025;-69
2021/07/25 05:46:10;;;;;;;7.40;3.28;;;;;;;29.43;44.30;96663.84;5053053;28;20029;-70
2021/07/25 05:48:36;;;;;;;6.05;3.70;;;;;;;29.68;41.11;96681.78;5052932;28;20032;-72
2021/07/25 05:51:03;;;;;;;5.40;3.70;;;;;;;29.83;40.27;96679.19;5053127;28;20021;-71
2021/07/25 05:53:32;;;;;;;9.32;4.00;;;;;;;29.93;40.70;96678.94;5052842;28;20055;-69
2021/07/25 05:55:58;;;;;;;7.25;4.55;;;;;;;30.17;39.36;96677.13;5053096;28;20037;-70
2021/07/25 05:58:24;;;;;;;6.85;3.67;;;;;;;30.38;38.77;96673.75;5053004;28;20031;-71
2021/07/25 06:00:51;;;;;;;6.57;3.83;;;;;;;30.34;36.59;96675.16;5052912;28;20025;-71
2021/07/25 06:03:17;;;;;;;7.97;4.00;;;;;;;29.92;36.65;96678.13;5053111;28;20040;-70
2021/07/25 06:05:42;;;;;;;12.35;3.90;;;;;;;29.90;37.48;96677.44;5052900;28;20367;-71
2021/07/25 06:08:08;;;;;;;5.50;3.88;;;;;;;29.91;34.96;96689.06;5053104;28;20021;-71
2021/07/25 06:10:39;;;;;;;6.43;4.13;;;;;;;29.98;37.60;96681.94;5052816;28;20033;-70
2021/07/25 06:13:05;;;;;;;5.43;3.83;;;;;;;30.04;34.65;96672.31;5052827;28;20460;-71
2021/07/25 06:15:32;;;;;;;8.43;3.83;;;;;;;29.76;34.09;96674.50;5052812;28;20489;-71
2021/07/25 06:18:01;;;;;;;3.78;3.40;;;;;;;29.59;36.08;96678.28;5052817;28;20044;-71
2021/07/25 06:20:28;;;;;;;8.85;3.90;;;;;;;29.34;34.85;96683.75;5052766;28;20025;-71
2021/07/25 06:22:55;;;;;;;7.47;3.47;;;;;;;29.28;35.38;96687.97;5052780;28;20021;-71
2021/07/25 06:25:24;;;;;;;7.72;3.38;;;;;;;29.14;34.40;96689.56;5052618;28;20021;-71
2021/07/25 06:27:52;;;;;;;5.72;3.47;;;;;;;29.42;34.96;96689.09;5054040;28;20383;-70
2021/07/25 06:30:19;;;;;;;5.88;3.42;;;;;;;29.53;35.01;96690.59;5056553;28;20029;-70
2021/07/25 06:33:03;;;;;;;11.02;3.85;;;;;;;29.69;34.44;96689.69;5056689;28;20471;-71
2021/07/25 06:35:31;;;;;;;7.43;3.65;;;;;;;29.86;35.35;96687.72;5056623;28;20103;-70
2021/07/25 06:38:03;;;;;;;8.05;3.33;;;;;;;29.71;33.39;96693.03;5056694;28;20098;-70
2021/07/25 06:40:30;;;;;;;6.47;3.28;;;;;;;29.78;33.76;96693.19;5056370;28;20025;-71
2021/07/25 06:42:56;;;;;;;6.45;3.30;;;;;;;29.82;32.28;96693.66;5056532;28;20474;-71
2021/07/25 06:45:23;;;;;;;7.72;3.58;;;;;;;29.91;32.10;96687.19;5056344;28;20032;-70
2021/07/25 06:47:50;;;;;;;5.97;3.33;;;;;;;29.95;32.33;96688.50;5056396;28;20025;-70
2021/07/25 06:50:23;;;;;;;6.03;3.17;;;;;;;29.84;31.94;96687.09;5056162;28;20032;-71
2021/07/25 06:52:51;;;;;;;4.72;3.05;;;;;;;30.05;32.22;96682.06;5056095;28;21079;-70
2021/07/25 06:55:22;;;;;;;6.65;2.65;;;;;;;30.06;33.87;96691.81;5056232;28;20029;-71
2021/07/25 06:57:48;;;;;;;3.97;3.05;;;;;;;30.09;33.06;96692.31;5056249;28;20025;-71
2021/07/25 07:00:15;;;;;;;5.43;2.72;;;;;;;30.40;32.84;96696.00;5056023;28;20023;-71
2021/07/25 07:02:54;;;;;;;5.43;3.20;;;;;;;30.59;32.39;96694.66;5056054;28;20386;-72
2021/07/25 07:05:21;;;;;;;8.13;3.20;;;;;;;30.35;29.86;96691.16;5056038;28;20443;-71
2021/07/25 07:07:48;;;;;;;7.80;3.05;;;;;;;30.20;30.73;96690.25;5055944;28;20438;-71
2021/07/25 07:10:18;;;;;;;2.97;2.60;;;;;;;30.42;31.20;96698.50;5055884;28;20037;-73
2021/07/25 07:12:45;;;;;;;6.05;3.35;;;;;;;30.36;30.50;96697.38;5055951;28;20025;-73
2021/07/25 07:15:13;;;;;;;11.25;3.20;;;;;;;29.91;30.71;96700.69;5055876;28;20029;-71
2021/07/25 07:17:39;;;;;;;7.22;3.75;;;;;;;30.20;30.60;96693.78;5055737;28;20041;-72
2021/07/25 07:20:07;;;;;;;4.28;2.95;;;;;;;30.37;30.49;96697.19;5055661;28;20032;-70
2021/07/25 07:22:33;;;;;;;9.48;3.42;;;;;;;30.07;29.15;96693.50;5055734;28;20116;-71
2021/07/25 07:24:58;;;;;;;4.90;3.00;;;;;;;30.08;30.00;96687.94;5055693;28;20031;-72
2021/07/25 07:27:25;;;;;;;5.13;3.25;;;;;;;29.94;29.89;96686.84;5055626;28;20018;-69
2021/07/25 07:29:52;;;;;;;5.90;2.97;;;;;;;29.96;28.91;96682.13;5055487;28;20033;-70
2021/07/25 07:32:18;;;;;;;5.50;2.70;;;;;;;30.05;32.23;96682.91;5055517;28;20376;-71
2021/07/25 07:34:44;;;;;;;5.13;2.80;;;;;;;29.70;29.10;96687.81;5055480;28;20433;-72
2021/07/25 07:37:10;;;;;;;9.00;3.72;;;;;;;29.41;28.79;96683.91;5055555;28;20021;-72
2021/07/25 07:39:37;;;;;;;6.65;2.78;;;;;;;29.36;29.58;96692.50;5054608;28;20036;-73
2021/07/25 07:42:04;;;;;;;6.40;3.38;;;;;;;28.99;28.95;96694.81;5055417;28;20029;-71
2021/07/25 07:44:30;;;;;;;7.32;3.38;;;;;;;29.13;29.77;96698.63;5055454;28;20028;-73
2021/07/25 07:46:56;;;;;;;7.32;3.05;;;;;;;29.28;30.84;96692.53;5055361;28;20060;-70
2021/07/25 07:49:21;;;;;;;6.78;2.75;;;;;;;29.62;32.36;96689.53;5055184;28;20057;-72
2021/07/25 07:51:47;;;;;;;4.88;2.85;;;;;;;29.79;29.39;96697.53;5055083;28;20029;-73
2021/07/25 07:54:13;;;;;;;5.10;2.92;;;;;;;29.80;28.64;96696.56;5054874;28;20044;-72
2021/07/25 07:56:39;;;;;;;8.68;3.78;;;;;;;30.32;31.60;96707.69;5055026;28;20022;-73
2021/07/25 07:59:04;;;;;;;4.30;2.90;;;;;;;30.45;29.61;96701.69;5055097;28;20107;-70
2021/07/25 08:01:30;;;;;;;7.30;3.10;;;;;;;30.18;28.76;96701.22;5054913;28;20044;-72
2021/07/25 08:03:56;;;;;;;13.85;2.80;;;;;;;30.50;30.31;96706.53;5055010;28;20513;-71
2021/07/25 08:06:22;;;;;;;7.43;3.60;;;;;;;30.85;28.51;96704.22;5054940;28;20063;-73
2021/07/25 08:08:47;;;;;;;4.70;2.92;;;;;;;30.85;28.49;96703.41;5054737;28;20021;-70
2021/07/25 08:11:13;;;;;;;7.15;3.05;;;;;;;31.24;28.45;96712.28;5054827;28;20541;-72
2021/07/25 08:13:39;;;;;;;8.30;3.15;;;;;;;31.32;29.17;96706.78;5054780;28;20536;-60
2021/07/25 08:16:05;;;;;;;4.43;2.70;;;;;;;31.56;29.93;96709.38;5054370;28;20029;-61
2021/07/25 08:18:30;;;;;;;5.07;3.40;;;;;;;31.90;28.64;96710.63;5054216;28;20021;-62
2021/07/25 08:20:56;;;;;;;10.90;3.50;;;;;;;31.95;28.53;96710.94;5052771;28;20039;-61
2021/07/25 08:23:22;;;;;;;4.32;3.00;;;;;;;31.89;28.05;96707.09;5054422;28;20039;-63
2021/07/25 08:25:48;;;;;;;6.03;2.72;;;;;;;31.28;29.07;96713.59;5051528;28;20471;-63
2021/07/25 08:28:14;;;;;;;7.22;2.70;;;;;;;31.05;29.32;96701.00;5053667;28;20075;-61
2021/07/25 08:30:40;;;;;;;4.07;3.20;;;;;;;30.97;29.13;96704.59;5054202;28;20025;-59
2021/07/25 08:33:05;;;;;;;8.73;3.00;;;;;;;30.78;30.95;96705.97;5053269;28;20021;-59
2021/07/25 08:35:31;;;;;;;6.97;2.97;;;;;;;30.95;30.00;96695.88;5053722;28;20064;-60
2021/07/25 08:37:57;;;;;;;5.82;3.45;;;;;;;30.69;29.98;96707.03;5054217;28;20387;-58
2021/07/25 08:40:25;;;;;;;5.90;3.00;;;;;;;29.48;30.71;96690.25;5053623;28;20032;-59
2021/07/25 08:43:18;;;;;;;8.63;3.13;;;;;;;29.26;31.03;96711.56;5053830;28;20028;-57
2021/07/25 08:45:46;;;;;;;4.00;2.97;;;;;;;29.51;28.22;96701.53;5048536;28;20043;-57
2021/07/25 08:48:17;;;;;;;5.82;2.95;;;;;;;29.75;30.32;96698.91;5053912;28;20043;-58
2021/07/25 08:51:07;;;;;;;4.45;3.00;;;;;;;30.10;28.33;96701.25;5053961;28;20104;-58
2021/07/25 08:53:34;;;;;;;;;;;;;;;30.01;27.04;96697.78;5043332;28;20057;-65
2021/07/25 08:56:00;;;;;;;5.90;2.60;;;;;;;29.71;30.01;96703.00;5053868;28;19944;-60
2021/07/25 08:58:28;;;;;;;9.75;3.30;;;;;;;30.07;29.04;96691.63;5053903;28;20068;-60
2021/07/25 09:00:55;;;;;;;7.40;2.55;;;;;;;30.38;28.41;96693.50;5053816;28;20032;-61
2021/07/25 09:03:22;;;;;;;7.70;3.05;;;;;;;30.71;26.98;96694.22;5053750;28;20025;-59
2021/07/25 09:05:48;;;;;;;4.50;2.83;;;;;;;30.79;27.99;96691.47;5053046;28;20021;-57
2021/07/25 09:08:14;;;;;;;3.70;2.55;;;;;;;30.49;28.20;96691.38;5053635;28;20159;-62
2021/07/25 09:10:40;;;;;;;4.32;2.92;;;;;;;30.14;28.62;96689.09;5053325;28;20043;-56
2021/07/25 09:13:06;;;;;;;9.68;3.72;;;;;;;29.74;29.47;96687.28;5053607;28;20606;-58
2021/07/25 09:15:35;;;;;;;10.60;3.05;;;;;;;29.65;29.14;96682.97;5053480;28;20056;-59
2021/07/25 09:18:03;;;;;;;4.28;2.60;;;;;;;29.64;28.82;96681.28;5053224;28;20029;-57
2021/07/25 09:20:35;;;;;;;7.28;3.28;;;;;;;29.52;28.73;96680.81;5052203;28;20028;-62
2021/07/25 09:23:05;;;;;;;8.18;2.85;;;;;;;29.70;30.47;96683.28;5053435;28;20025;-63
2021/07/25 09:25:53;;;;;;;8.35;3.33;;;;;;;29.89;28.10;96679.28;5053427;28;20052;-59
2021/07/25 09:28:22;;;;;;;4.40;2.65;;;;;;;29.76;30.91;96679.03;5053318;28;20029;-59
2021/07/25 09:30:48;;;;;;;4.72;2.85;;;;;;;30.00;27.60;96682.59;5052672;28;20037;-58
2021/07/25 09:33:44;;;;;;;13.50;3.17;;;;;;;30.02;28.76;96670.63;5053262;28;20520;-61
2021/07/25 09:36:15;;;;;;;6.80;3.00;;;;;;;30.25;28.33;96672.50;5051991;28;20111;-63
2021/07/25 09:38:44;;;;;;;5.60;3.17;;;;;;;30.43;28.93;96674.03;5053275;28;20033;-63
2021/07/25 09:41:19;;;;;;;6.57;2.97;;;;;;;30.55;27.92;96676.31;5053145;28;20078;-62
2021/07/25 09:44:00;;;;;;;5.97;3.00;;;;;;;30.49;26.91;96672.50;5052377;28;20159;-62
2021/07/25 09:46:26;;;;;;;6.35;2.80;;;;;;;30.40;27.74;96663.63;5052932;28;20158;-61
2021/07/25 09:48:56;;;;;;;5.28;2.83;;;;;;;30.33;26.88;96670.75;5053023;28;20112;-61
2021/07/25 09:51:23;;;;;;;13.18;3.10;;;;;;;30.23;29.76;96665.63;5053002;28;20048;-63
2021/07/25 09:53:51;;;;;;;6.68;2.70;;;;;;;30.11;27.94;96662.47;5052417;28;20080;-56
2021/07/25 09:56:20;;;;;;;6.55;2.60;;;;;;;30.05;27.62;96660.50;5052964;28;20028;-60
2021/07/25 09:58:48;;;;;;;4.93;2.75;;;;;;;30.12;28.89;96656.06;5052973;28;20436;-59
2021/07/25 10:01:34;;;;;;;8.90;3.08;;;;;;;30.05;28.41;96661.34;5052305;28;20029;-56
2021/07/25 10:04:21;;;;;;;3.95;2.83;;;;;;;29.86;28.29;96659.97;5051815;28;20043;-57
2021/07/25 10:06:52;;;;;;;6.28;2.75;;;;;;;29.94;27.05;96662.59;5053180;28;20029;-62
2021/07/25 10:09:19;;;;;;;6.82;3.25;;;;;;;29.85;28.62;96656.41;5052144;28;20025;-62
2021/07/25 10:11:59;;;;;;;5.22;2.67;;;;;;;29.34;27.36;96659.50;5052136;28;20025;-55
2021/07/25 10:14:29;;;;;;;8.25;3.03;;;;;;;29.20;29.13;96664.59;5051887;28;20459;-56
2021/07/25 10:16:56;;;;;;;6.97;3.38;;;;;;;29.41;29.03;96656.97;5052521;28;20036;-59
2021/07/25 10:19:29;;;;;;;7.40;3.00;;;;;;;29.60;27.75;96659.25;5052758;28;20124;-63
2021/07/25 10:21:56;;;;;;;9.40;3.00;;;;;;;29.73;28.40;96661.38;5052748;28;20063;-60
2021/07/25 10:24:24;;;;;;;3.00;2.70;;;;;;;30.05;28.26;96658.66;5052352;28;20041;-61
2021/07/25 10:26:54;;;;;;;3.72;2.42;;;;;;;30.29;26.35;96655.97;5052481;28;20104;-63
2021/07/25 10:29:23;;;;;;;6.07;2.30;;;;;;;30.32;25.28;96655.59;5052673;28;20056;-61
2021/07/25 10:31:54;;;;;;;6.03;2.67;;;;;;;30.41;25.63;96646.44;5052640;28;20033;-57
2021/07/25 10:34:21;;;;;;;4.60;2.65;;;;;;;30.25;25.93;96645.53;5052816;28;20123;-58
2021/07/25 10:36:51;;;;;;;3.95;2.38;;;;;;;30.04;26.79;96645.34;5052183;28;20037;-60
2021/07/25 10:39:18;;;;;;;9.30;2.57;;;;;;;30.03;27.41;96647.19;5052585;28;20036;-61
2021/07/25 10:41:47;;;;;;;5.80;2.40;;;;;;;29.82;26.52;96639.75;5052549;28;20533;-63
2021/07/25 10:44:17;;;;;;;4.28;2.40;;;;;;;29.81;27.04;96641.63;5052619;28;20025;-63
2021/07/25 10:46:42;;;;;;;7.88;2.70;;;;;;;29.80;25.28;96637.25;5052530;28;20024;-62
2021/07/25 10:49:12;;;;;;;5.65;2.72;;;;;;;30.06;27.58;96641.44;5050919;28;20033;-62
2021/07/25 10:51:55;;;;;;;4.80;2.30;;;;;;;30.21;24.55;96640.69;5052102;28;20031;-62
2021/07/25 10:54:24;;;;;;;11.82;3.60;;;;;;;30.37;25.57;96643.25;5052215;28;20045;-56
2021/07/25 10:57:04;;;;;;;3.50;2.20;;;;;;;30.52;26.57;96642.47;5051930;28;20055;-58
2021/07/25 10:59:46;;;;;;;2.80;2.20;;;;;;;30.46;26.84;96641.31;5052542;28;20029;-63
2021/07/25 11:02:14;;;;;;;3.83;2.72;;;;;;;30.01;24.98;96639.28;5051824;28;20282;-55
2021/07/25 11:04:55;;;;;;;4.57;2.40;;;;;;;29.63;25.28;96641.91;5052345;28;20021;-54
2021/07/25 11:07:24;;;;;;;4.53;2.70;;;;;;;29.64;26.21;96635.47;5052373;28;20060;-59
2021/07/25 11:09:59;;;;;;;4.28;2.30;;;;;;;29.96;26.17;96635.44;5052338;28;20033;-59
2021/07/25 11:12:26;;;;;;;8.38;2.90;;;;;;;30.01;25.11;96628.50;5052316;28;20025;-64
2021/07/25 11:15:03;;;;;;;7.22;2.55;;;;;;;30.07;25.21;96624.25;5053220;28;20025;-59
2021/07/25 11:18:02;;;;;;;8.07;2.38;;;;;;;29.95;25.69;96625.69;5055709;28;20036;-58
2021/07/25 11:20:31;;;;;;;7.15;2.20;;;;;;;29.74;25.97;96630.69;5047958;28;20391;-61
2021/07/25 11:22:57;;;;;;;2.88;2.30;;;;;;;29.84;24.38;96617.00;5055707;28;20032;-60
2021/07/25 11:25:35;;;;;;;8.02;2.35;;;;;;;29.93;25.22;96620.47;5055829;28;20400;-62
2021/07/25 11:28:05;;;;;;;6.75;2.67;;;;;;;30.02;25.47;96627.50;5055322;28;20028;-58
2021/07/25 11:30:51;;;;;;;2.90;2.20;;;;;;;30.24;25.58;96622.28;5055506;28;20560;-64
2021/07/25 11:33:48;;;;;;;5.13;2.03;;;;;;;30.45;24.17;96609.97;5055445;28;20106;-57
2021/07/25 11:36:21;;;;;;;4.57;2.10;;;;;;;30.57;24.45;96613.06;5055463;28;20506;-60
2021/07/25 11:39:01;;;;;;;3.95;2.28;;;;;;;30.52;22.80;96610.91;5055200;28;20112;-63
2021/07/25 11:41:32;;;;;;;13.13;2.58;;;;;;;30.40;24.80;96617.78;5055485;28;20032;-59